createdAt,value
2023-03-22T00:01:46.173Z,6.60
2023-03-22T00:04:12.704Z,7.23
2023-03-22T00:06:39.288Z,6.90
2023-03-22T00:09:05.688Z,6.87
2023-03-22T00:11:32.014Z,6.50
2023-03-22T00:13:58.868Z,6.37
2023-03-22T00:16:25.499Z,6.73
2023-03-22T00:18:52.102Z,5.90
2023-03-22T00:21:18.613Z,5.80
2023-03-22T00:23:45.492Z,5.60
2023-03-22T00:26:14.743Z,5.93
2023-03-22T00:28:41.518Z,5.93
2023-03-22T00:31:08.353Z,5.63
2023-03-22T00:33:35.351Z,4.90
2023-03-22T00:36:05.545Z,6.03
2023-03-22T00:38:42.352Z,5.87
2023-03-22T00:41:14.578Z,5.73
2023-03-22T00:43:41.166Z,5.60
2023-03-22T00:46:08.588Z,6.07
2023-03-22T00:48:35.165Z,6.00
2023-03-22T00:51:01.737Z,6.40
2023-03-22T00:53:30.405Z,6.23
2023-03-22T00:55:57.328Z,6.13
2023-03-22T00:58:24.805Z,5.63
2023-03-22T01:00:51.315Z,5.63
2023-03-22T01:03:17.772Z,5.50
2023-03-22T01:05:49.245Z,5.63
2023-03-22T01:08:16.566Z,4.83
2023-03-22T01:10:43.448Z,4.80
2023-03-22T01:13:11.204Z,5.50
2023-03-22T01:15:37.678Z,5.13
2023-03-22T01:18:04.408Z,6.30
2023-03-22T01:20:31.930Z,7.07
2023-03-22T01:22:58.458Z,5.13
2023-03-22T01:25:25.114Z,5.80
2023-03-22T01:27:51.451Z,5.53
2023-03-22T01:30:17.914Z,4.97
2023-03-22T01:32:44.281Z,4.93
2023-03-22T01:35:10.733Z,5.73
2023-03-22T01:37:37.101Z,5.87
2023-03-22T01:40:04.569Z,4.57
2023-03-22T01:42:31.065Z,4.70
2023-03-22T01:45:16.651Z,5.70
2023-03-22T01:47:51.817Z,4.33
2023-03-22T01:50:19.454Z,4.93
2023-03-22T01:52:46.028Z,4.63
2023-03-22T01:55:12.965Z,4.90
2023-03-22T01:57:42.010Z,4.50
2023-03-22T02:00:13.804Z,4.83
2023-03-22T02:02:40.476Z,4.20
2023-03-22T02:05:07.053Z,4.80
2023-03-22T02:07:33.454Z,3.90
2023-03-22T02:09:59.798Z,4.37
2023-03-22T02:12:35.383Z,4.90
2023-03-22T02:15:19.060Z,4.30
2023-03-22T02:18:06.243Z,4.00
2023-03-22T02:21:06.683Z,4.03
2023-03-22T02:23:54.846Z,4.20
2023-03-22T02:26:27.311Z,4.30
2023-03-22T02:29:04.344Z,4.17
2023-03-22T02:31:56.091Z,4.90
2023-03-22T02:34:57.083Z,4.07
2023-03-22T02:37:50.699Z,4.37
2023-03-22T02:40:32.160Z,4.37
2023-03-22T02:43:23.377Z,4.73
2023-03-22T02:46:07.113Z,5.50
2023-03-22T02:48:52.914Z,4.00
2023-03-22T02:51:29.268Z,4.00
2023-03-22T02:54:20.996Z,4.10
2023-03-22T02:56:55.494Z,4.57
2023-03-22T02:59:24.466Z,4.70
2023-03-22T03:01:54.760Z,4.30
2023-03-22T03:04:27.453Z,4.43
2023-03-22T03:06:57.562Z,4.20
2023-03-22T03:09:24.946Z,4.90
2023-03-22T03:11:53.557Z,4.50
2023-03-22T03:14:22.595Z,5.00
2023-03-22T03:17:01.931Z,4.57
2023-03-22T03:19:37.407Z,4.83
2023-03-22T03:22:25.940Z,4.07
2023-03-22T03:25:08.014Z,4.50
2023-03-22T03:27:49.786Z,4.80
2023-03-22T03:30:32.406Z,4.20
2023-03-22T03:33:06.419Z,4.70
2023-03-22T03:35:38.289Z,4.07
2023-03-22T03:38:10.466Z,4.20
2023-03-22T03:40:41.795Z,4.63
2023-03-22T03:43:09.687Z,4.33
2023-03-22T03:45:37.261Z,4.33
2023-03-22T03:48:13.116Z,4.03
2023-03-22T03:50:39.862Z,4.40
2023-03-22T03:53:06.472Z,4.60
2023-03-22T03:55:33.436Z,4.93
2023-03-22T03:57:59.766Z,4.90
2023-03-22T04:00:26.118Z,6.00
2023-03-22T04:02:52.538Z,5.43
2023-03-22T04:05:18.862Z,5.07
2023-03-22T04:07:45.404Z,5.43
2023-03-22T04:10:11.737Z,5.03
2023-03-22T04:12:38.428Z,5.30
2023-03-22T04:15:05.553Z,5.00
2023-03-22T04:17:31.993Z,5.47
2023-03-22T04:19:58.400Z,5.17
2023-03-22T04:22:25.490Z,4.43
2023-03-22T04:24:51.965Z,4.93
2023-03-22T04:27:20.510Z,4.97
2023-03-22T04:29:48.105Z,4.40
2023-03-22T04:32:22.790Z,4.77
2023-03-22T04:34:50.380Z,4.80
2023-03-22T04:37:17.580Z,4.87
2023-03-22T04:39:44.714Z,4.80
2023-03-22T04:42:11.738Z,4.83
2023-03-22T04:44:38.107Z,5.23
2023-03-22T04:47:04.497Z,5.43
2023-03-22T04:49:31.353Z,5.17
2023-03-22T04:51:57.790Z,5.50
2023-03-22T04:54:24.442Z,4.93
2023-03-22T04:56:50.787Z,5.33
2023-03-22T04:59:20.113Z,5.13
2023-03-22T05:01:47.487Z,4.90
2023-03-22T05:04:14.572Z,5.13
2023-03-22T05:06:40.955Z,5.00
2023-03-22T05:09:07.922Z,5.80
2023-03-22T05:11:34.522Z,5.77
2023-03-22T05:14:00.898Z,5.60
2023-03-22T05:16:27.302Z,6.13
2023-03-22T05:18:54.295Z,6.00
2023-03-22T05:21:28.262Z,5.90
2023-03-22T05:23:58.607Z,5.40
2023-03-22T05:26:26.192Z,6.10
2023-03-22T05:28:54.187Z,5.83
2023-03-22T05:31:21.869Z,5.90
2023-03-22T05:33:50.384Z,6.20
2023-03-22T05:36:18.976Z,5.20
2023-03-22T05:38:46.503Z,6.20
2023-03-22T05:41:13.766Z,7.13
2023-03-22T05:43:40.177Z,10.97
2023-03-22T05:46:08.694Z,7.10
2023-03-22T05:48:36.344Z,7.90
2023-03-22T05:51:06.584Z,7.37
2023-03-22T05:53:33.088Z,6.97
2023-03-22T05:56:03.303Z,6.63
2023-03-22T05:58:31.542Z,6.70
2023-03-22T06:01:01.199Z,7.27
2023-03-22T06:03:28.369Z,6.70
2023-03-22T06:05:54.900Z,7.07
2023-03-22T06:08:25.367Z,6.50
2023-03-22T06:10:54.163Z,6.60
2023-03-22T06:13:21.591Z,6.27
2023-03-22T06:15:47.992Z,7.30
2023-03-22T06:18:14.321Z,6.77
2023-03-22T06:20:41.177Z,7.27
2023-03-22T06:23:07.805Z,6.93
2023-03-22T06:25:34.190Z,7.30
2023-03-22T06:28:00.701Z,7.93
2023-03-22T06:30:27.666Z,7.20
2023-03-22T06:32:54.826Z,8.20
2023-03-22T06:35:21.210Z,6.70
2023-03-22T06:37:47.580Z,7.47
2023-03-22T06:40:14.156Z,7.50
2023-03-22T06:42:40.533Z,7.77
2023-03-22T06:45:07.948Z,7.10
2023-03-22T06:47:34.385Z,7.80
2023-03-22T06:50:00.720Z,7.10
2023-03-22T06:52:27.060Z,6.90
2023-03-22T06:54:53.410Z,6.90
2023-03-22T06:57:19.757Z,8.20
2023-03-22T06:59:46.092Z,6.83
2023-03-22T07:02:12.860Z,7.70
2023-03-22T07:04:39.261Z,7.93
2023-03-22T07:07:05.716Z,7.50
2023-03-22T07:09:32.052Z,7.30
2023-03-22T07:11:58.377Z,7.47
2023-03-22T07:14:24.735Z,7.53
2023-03-22T07:16:51.057Z,7.87
2023-03-22T07:19:18.349Z,8.50
2023-03-22T07:21:44.688Z,7.37
2023-03-22T07:24:11.956Z,7.83
2023-03-22T07:26:39.119Z,8.77
2023-03-22T07:29:05.493Z,8.13
2023-03-22T07:31:35.576Z,7.60
2023-03-22T07:34:05.984Z,8.20
2023-03-22T07:36:32.953Z,6.93
2023-03-22T07:38:59.317Z,8.07
2023-03-22T07:41:27.151Z,7.97
2023-03-22T07:44:00.221Z,8.17
2023-03-22T07:46:34.185Z,7.67
2023-03-22T07:49:00.759Z,7.73
2023-03-22T07:51:27.107Z,7.10
2023-03-22T07:53:53.434Z,7.50
2023-03-22T07:56:19.794Z,7.20
2023-03-22T07:58:46.179Z,8.13
2023-03-22T08:01:12.553Z,7.97
2023-03-22T08:03:39.536Z,6.87
2023-03-22T08:06:07.558Z,7.10
2023-03-22T08:08:35.402Z,7.00
2023-03-22T08:11:01.755Z,7.17
2023-03-22T08:13:28.090Z,7.40
2023-03-22T08:15:54.460Z,6.70
2023-03-22T08:18:20.995Z,5.80
2023-03-22T08:20:56.214Z,6.70
2023-03-22T08:23:38.545Z,5.90
2023-03-22T08:26:07.207Z,5.97
2023-03-22T08:28:33.572Z,6.60
2023-03-22T08:31:00.134Z,5.87
2023-03-22T08:33:26.607Z,6.20
2023-03-22T08:35:52.983Z,6.30
2023-03-22T08:38:19.571Z,6.70
2023-03-22T08:40:46.815Z,6.07
2023-03-22T08:43:13.198Z,6.33
2023-03-22T08:45:40.062Z,7.40
2023-03-22T08:48:06.797Z,6.80
2023-03-22T08:50:34.889Z,6.90
2023-03-22T08:53:01.288Z,7.13
2023-03-22T08:55:27.742Z,6.50
2023-03-22T08:57:58.028Z,7.07
2023-03-22T09:00:24.878Z,7.17
2023-03-22T09:02:51.317Z,6.80
2023-03-22T09:05:17.653Z,6.60
2023-03-22T09:07:44.207Z,6.00
2023-03-22T09:10:11.029Z,7.00
2023-03-22T09:12:38.426Z,6.80
2023-03-22T09:15:06.181Z,6.30
2023-03-22T09:17:32.895Z,5.70
2023-03-22T09:20:11.397Z,5.80
2023-03-22T09:22:38.733Z,5.97
2023-03-22T09:25:06.004Z,5.37
2023-03-22T09:27:32.398Z,5.57
2023-03-22T09:30:00.034Z,5.97
2023-03-22T09:32:26.723Z,5.50
2023-03-22T09:34:53.127Z,5.00
2023-03-22T09:37:19.966Z,5.13
2023-03-22T09:39:46.284Z,5.07
2023-03-22T09:42:27.936Z,4.73
2023-03-22T09:44:56.402Z,4.10
2023-03-22T09:47:43.896Z,4.37
2023-03-22T09:50:21.161Z,4.37
2023-03-22T09:52:48.219Z,5.00
2023-03-22T09:55:21.751Z,4.50
2023-03-22T09:57:58.604Z,3.73
2023-03-22T10:00:37.188Z,3.87
2023-03-22T10:03:24.466Z,3.80
2023-03-22T10:06:04.939Z,4.30
2023-03-22T10:09:00.847Z,4.10
2023-03-22T10:11:30.138Z,3.97
2023-03-22T10:14:13.149Z,4.00
2023-03-22T10:16:40.169Z,4.20
2023-03-22T10:19:24.090Z,3.43
2023-03-22T10:21:54.463Z,3.60
2023-03-22T10:24:31.330Z,3.43
2023-03-22T10:26:57.719Z,3.17
2023-03-22T10:29:40.778Z,3.10
2023-03-22T10:32:19.101Z,3.50
2023-03-22T10:34:46.579Z,3.00
2023-03-22T10:37:20.443Z,2.87
2023-03-22T10:39:51.006Z,4.00
2023-03-22T10:42:25.048Z,2.37
2023-03-22T10:45:00.247Z,3.37
2023-03-22T10:47:34.604Z,2.90
2023-03-22T10:50:07.121Z,2.73
2023-03-22T10:52:40.965Z,3.10
2023-03-22T10:55:13.494Z,2.57
2023-03-22T10:57:42.891Z,3.20
2023-03-22T11:00:12.474Z,2.83
2023-03-22T11:02:53.274Z,2.33
2023-03-22T11:05:30.084Z,2.10
2023-03-22T11:07:58.684Z,2.10
2023-03-22T11:10:28.628Z,2.00
2023-03-22T11:12:56.759Z,3.03
2023-03-22T11:15:30.284Z,2.70
2023-03-22T11:18:06.921Z,3.30
2023-03-22T11:20:39.996Z,2.60
2023-03-22T11:23:06.907Z,1.97
2023-03-22T11:25:36.267Z,1.97
2023-03-22T11:28:15.355Z,2.17
2023-03-22T11:30:58.567Z,1.90
2023-03-22T11:33:25.985Z,2.53
2023-03-22T11:35:58.033Z,2.20
2023-03-22T11:38:39.065Z,1.93
2023-03-22T11:41:10.433Z,1.93
2023-03-22T11:43:48.761Z,2.00
2023-03-22T11:46:19.267Z,1.70
2023-03-22T11:48:48.188Z,2.70
2023-03-22T11:51:36.290Z,2.10
2023-03-22T11:54:10.927Z,2.53
2023-03-22T11:56:42.336Z,2.07
2023-03-22T11:59:14.125Z,2.60
2023-03-22T12:01:45.572Z,2.30
2023-03-22T12:04:18.643Z,2.30
2023-03-22T12:06:45.239Z,2.33
2023-03-22T12:09:41.187Z,1.90
2023-03-22T12:12:22.936Z,2.80
2023-03-22T12:15:14.160Z,1.97
2023-03-22T12:17:59.279Z,2.30
2023-03-22T12:20:32.361Z,2.13
2023-03-22T12:22:59.486Z,2.50
2023-03-22T12:25:32.107Z,2.20
2023-03-22T12:28:07.206Z,2.30
2023-03-22T12:30:52.495Z,2.37
2023-03-22T12:33:26.931Z,1.60
2023-03-22T12:35:58.252Z,1.87
2023-03-22T12:38:31.109Z,1.50
2023-03-22T12:41:02.244Z,1.90
2023-03-22T12:43:44.364Z,1.73
2023-03-22T12:46:18.661Z,1.50
2023-03-22T12:49:09.141Z,1.40
2023-03-22T12:51:36.680Z,1.80
2023-03-22T12:54:03.573Z,1.50
2023-03-22T12:56:38.768Z,1.90
2023-03-22T12:59:08.130Z,1.80
2023-03-22T13:01:46.459Z,1.83
2023-03-22T13:04:31.690Z,2.20
2023-03-22T13:07:15.249Z,1.87
2023-03-22T13:09:47.599Z,1.83
2023-03-22T13:12:16.944Z,2.07
2023-03-22T13:14:52.609Z,1.60
2023-03-22T13:17:21.973Z,1.70
2023-03-22T13:20:11.408Z,1.53
2023-03-22T13:22:37.712Z,1.50
2023-03-22T13:25:10.222Z,1.70
2023-03-22T13:27:45.322Z,1.30
2023-03-22T13:30:35.208Z,1.70
2023-03-22T13:33:20.993Z,1.20
2023-03-22T13:35:50.963Z,1.77
2023-03-22T13:38:22.665Z,1.77
2023-03-22T13:41:01.121Z,1.30
2023-03-22T13:43:47.471Z,1.30
2023-03-22T13:46:29.853Z,1.30
2023-03-22T13:49:16.953Z,1.13
2023-03-22T13:51:44.521Z,1.40
2023-03-22T13:54:13.889Z,1.73
2023-03-22T13:57:01.253Z,1.80
2023-03-22T13:59:27.815Z,1.83
2023-03-22T14:02:00.167Z,1.20
2023-03-22T14:04:43.719Z,1.70
2023-03-22T14:07:25.635Z,1.50
2023-03-22T14:10:06.524Z,1.23
2023-03-22T14:12:49.571Z,1.33
2023-03-22T14:15:38.586Z,1.00
2023-03-22T14:18:12.494Z,1.43
2023-03-22T14:20:40.003Z,1.20
